createdAt,value
2019-03-27T00:00:33.654Z,7.30
2019-03-27T00:03:02.709Z,7.13
2019-03-27T00:05:31.747Z,6.63
2019-03-27T00:08:00.773Z,7.90
2019-03-27T00:10:29.770Z,8.13
2019-03-27T00:12:58.934Z,8.43
2019-03-27T00:15:27.938Z,7.77
2019-03-27T00:17:56.953Z,7.37
2019-03-27T00:20:26.019Z,7.80
2019-03-27T00:22:55.038Z,7.00
2019-03-27T00:25:24.039Z,7.73
2019-03-27T00:27:54.026Z,6.57
2019-03-27T00:30:23.013Z,5.60
2019-03-27T00:32:52.042Z,6.20
2019-03-27T00:35:21.034Z,6.77
2019-03-27T00:37:50.047Z,6.93
2019-03-27T00:40:19.026Z,6.97
2019-03-27T00:42:48.033Z,7.70
2019-03-27T00:45:26.491Z,8.13
2019-03-27T00:47:47.802Z,10.03
2019-03-27T00:50:16.736Z,8.10
2019-03-27T00:52:45.786Z,9.53
2019-03-27T00:55:14.969Z,8.40
2019-03-27T00:57:43.978Z,6.97
2019-03-27T01:00:14.536Z,5.40
2019-03-27T01:02:43.562Z,6.20
2019-03-27T01:05:13.644Z,7.50
2019-03-27T01:07:42.709Z,7.13
2019-03-27T01:10:11.896Z,6.43
2019-03-27T01:12:40.949Z,7.20
2019-03-27T01:15:10.257Z,7.13
2019-03-27T01:17:39.328Z,8.07
2019-03-27T01:20:08.621Z,7.07
2019-03-27T01:22:37.537Z,6.40
2019-03-27T01:25:06.636Z,7.43
2019-03-27T01:27:35.926Z,7.53
2019-03-27T01:30:05.444Z,7.80
2019-03-27T01:32:34.434Z,9.10
2019-03-27T01:35:03.626Z,7.27
2019-03-27T01:37:32.859Z,7.57
2019-03-27T01:40:01.912Z,6.87
2019-03-27T01:42:31.292Z,7.20
2019-03-27T01:45:00.343Z,8.07
2019-03-27T01:47:30.479Z,8.17
2019-03-27T01:49:59.514Z,7.00
2019-03-27T01:52:28.501Z,7.77
2019-03-27T01:54:57.512Z,6.40
2019-03-27T01:57:26.456Z,5.77
2019-03-27T01:59:55.460Z,5.63
2019-03-27T02:02:24.516Z,6.03
2019-03-27T02:04:53.546Z,6.03
2019-03-27T02:07:22.571Z,5.80
2019-03-27T02:09:51.561Z,5.83
2019-03-27T02:12:20.613Z,6.33
2019-03-27T02:14:49.626Z,7.67
2019-03-27T02:17:18.616Z,8.70
2019-03-27T02:19:47.576Z,9.03
2019-03-27T02:22:16.567Z,8.70
2019-03-27T02:24:45.588Z,8.07
2019-03-27T02:27:14.595Z,6.73
2019-03-27T02:29:43.644Z,7.87
2019-03-27T02:32:12.625Z,9.30
2019-03-27T02:34:41.643Z,8.53
2019-03-27T02:37:10.644Z,8.83
2019-03-27T02:39:39.655Z,8.13
2019-03-27T02:42:08.653Z,7.50
2019-03-27T02:44:37.665Z,8.27
2019-03-27T02:47:06.597Z,9.00
2019-03-27T02:49:35.601Z,9.33
2019-03-27T02:52:04.686Z,8.30
2019-03-27T02:54:34.855Z,8.47
2019-03-27T02:57:03.941Z,8.00
2019-03-27T02:59:32.936Z,6.33
2019-03-27T03:02:01.983Z,7.53
2019-03-27T03:04:31.123Z,8.73
2019-03-27T03:07:00.141Z,10.03
2019-03-27T03:09:29.150Z,10.40
2019-03-27T03:11:58.159Z,9.07
2019-03-27T03:14:27.156Z,10.27
2019-03-27T03:16:56.116Z,9.57
2019-03-27T03:19:25.244Z,11.07
2019-03-27T03:21:54.234Z,9.20
2019-03-27T03:24:23.254Z,8.83
2019-03-27T03:26:52.316Z,8.07
2019-03-27T03:29:21.345Z,10.03
2019-03-27T03:31:50.391Z,8.80
2019-03-27T03:34:19.584Z,9.83
2019-03-27T03:36:48.622Z,11.60
2019-03-27T03:39:17.625Z,11.17
2019-03-27T03:41:46.578Z,11.40
2019-03-27T03:44:15.497Z,12.73
2019-03-27T03:46:58.886Z,15.00
2019-03-27T03:49:16.100Z,14.50
2019-03-27T03:51:45.115Z,14.60
2019-03-27T03:54:14.195Z,15.17
2019-03-27T03:56:43.595Z,13.53
2019-03-27T03:59:12.976Z,12.97
2019-03-27T04:01:43.147Z,11.13
2019-03-27T04:04:13.292Z,10.53
2019-03-27T04:06:42.309Z,12.00
2019-03-27T04:09:11.306Z,10.10
2019-03-27T04:11:40.341Z,8.83
2019-03-27T04:14:09.555Z,8.97
2019-03-27T04:16:38.678Z,11.20
2019-03-27T04:19:07.699Z,10.93
2019-03-27T04:21:36.725Z,10.53
2019-03-27T04:24:05.808Z,12.20
2019-03-27T04:26:34.777Z,13.13
2019-03-27T04:29:03.790Z,16.00
2019-03-27T04:31:32.811Z,16.87
2019-03-27T04:34:01.822Z,17.40
2019-03-27T04:36:30.814Z,15.00
2019-03-27T04:38:59.795Z,16.40
2019-03-27T04:41:28.792Z,17.83
2019-03-27T04:43:59.357Z,17.10
2019-03-27T04:46:28.397Z,16.23
2019-03-27T04:48:57.482Z,15.90
2019-03-27T04:51:26.468Z,14.80
2019-03-27T04:53:55.479Z,16.23
2019-03-27T04:56:24.531Z,15.63
2019-03-27T04:58:54.892Z,15.37
2019-03-27T05:01:23.894Z,15.60
2019-03-27T05:03:53.291Z,15.53
2019-03-27T05:06:23.366Z,17.03
2019-03-27T05:08:52.443Z,16.67
2019-03-27T05:11:21.509Z,17.13
2019-03-27T05:13:50.524Z,16.70
2019-03-27T05:16:19.518Z,18.60
2019-03-27T05:18:48.485Z,18.93
2019-03-27T05:21:17.579Z,17.40
2019-03-27T05:23:46.610Z,15.77
2019-03-27T05:26:15.657Z,16.33
2019-03-27T05:28:44.698Z,16.47
2019-03-27T05:31:13.994Z,17.90
2019-03-27T05:33:43.031Z,17.37
2019-03-27T05:36:12.086Z,17.93
2019-03-27T05:38:41.137Z,17.37
2019-03-27T05:41:10.139Z,16.47
2019-03-27T05:43:39.143Z,16.80
2019-03-27T05:46:08.161Z,18.07
2019-03-27T05:48:37.177Z,16.50
2019-03-27T05:51:06.219Z,17.53
2019-03-27T05:53:35.214Z,15.37
2019-03-27T05:56:04.179Z,17.20
2019-03-27T05:58:33.211Z,15.63
2019-03-27T06:01:02.213Z,16.10
2019-03-27T06:03:31.572Z,14.83
2019-03-27T06:06:00.577Z,14.40
2019-03-27T06:08:29.509Z,15.80
2019-03-27T06:10:58.439Z,15.20
2019-03-27T06:13:27.464Z,16.57
2019-03-27T06:15:56.530Z,15.97
2019-03-27T06:18:26.718Z,15.87
2019-03-27T06:20:55.734Z,16.47
2019-03-27T06:23:24.779Z,16.50
2019-03-27T06:25:53.781Z,16.27
2019-03-27T06:28:22.799Z,16.67
2019-03-27T06:30:51.793Z,16.43
2019-03-27T06:33:20.802Z,16.63
2019-03-27T06:35:50.132Z,15.53
2019-03-27T06:38:20.006Z,16.33
2019-03-27T06:40:49.017Z,16.07
2019-03-27T06:43:18.006Z,16.83
2019-03-27T06:45:46.959Z,16.00
2019-03-27T06:48:25.775Z,16.43
2019-03-27T06:50:46.663Z,15.10
2019-03-27T06:53:15.669Z,16.73
2019-03-27T06:55:44.685Z,17.23
2019-03-27T06:58:13.678Z,16.10
2019-03-27T07:00:42.695Z,15.87
2019-03-27T07:03:11.682Z,15.53
2019-03-27T07:05:40.734Z,17.13
2019-03-27T07:08:09.720Z,14.53
2019-03-27T07:10:38.669Z,14.27
2019-03-27T07:13:07.655Z,14.67
2019-03-27T07:15:36.673Z,13.50
2019-03-27T07:18:05.656Z,12.23
2019-03-27T07:20:34.603Z,11.90
2019-03-27T07:23:03.602Z,12.43
2019-03-27T07:25:32.617Z,12.00
2019-03-27T07:28:01.537Z,12.00
2019-03-27T07:30:30.495Z,11.47
2019-03-27T07:32:59.522Z,11.67
2019-03-27T07:35:28.614Z,12.73
2019-03-27T07:37:57.612Z,11.50
2019-03-27T07:40:26.633Z,11.50
2019-03-27T07:42:55.681Z,11.80
2019-03-27T07:45:24.694Z,10.97
2019-03-27T07:47:53.701Z,11.70
2019-03-27T07:50:22.714Z,12.70
2019-03-27T07:52:51.657Z,12.73
2019-03-27T07:55:20.688Z,12.17
2019-03-27T07:57:49.692Z,12.50
2019-03-27T08:00:20.244Z,11.10
2019-03-27T08:02:49.263Z,10.27
2019-03-27T08:05:18.300Z,12.13
2019-03-27T08:07:47.303Z,9.70
2019-03-27T08:10:16.323Z,10.43
2019-03-27T08:12:45.334Z,9.20
2019-03-27T08:15:14.404Z,9.37
2019-03-27T08:17:43.406Z,9.07
2019-03-27T08:20:12.510Z,8.03
2019-03-27T08:22:42.457Z,8.17
2019-03-27T08:25:11.559Z,7.80
2019-03-27T08:27:40.577Z,7.73
2019-03-27T08:30:11.034Z,7.80
2019-03-27T08:32:40.166Z,8.03
2019-03-27T08:35:09.358Z,7.30
2019-03-27T08:37:38.346Z,7.10
2019-03-27T08:40:08.347Z,7.17
2019-03-27T08:42:37.353Z,7.13
2019-03-27T08:45:06.856Z,7.10
2019-03-27T08:47:36.392Z,7.30
2019-03-27T08:50:06.318Z,6.53
2019-03-27T08:52:35.277Z,6.80
2019-03-27T08:55:05.969Z,6.73
2019-03-27T08:57:34.997Z,5.83
2019-03-27T09:00:05.542Z,6.00
2019-03-27T09:02:34.855Z,5.60
2019-03-27T09:05:05.437Z,5.97
2019-03-27T09:07:34.436Z,6.07
2019-03-27T09:10:04.608Z,6.57
2019-03-27T09:12:33.611Z,5.87
2019-03-27T09:15:02.650Z,5.43
2019-03-27T09:17:47.332Z,5.50
2019-03-27T09:20:17.805Z,6.90
2019-03-27T09:22:46.861Z,5.90
2019-03-27T09:25:16.817Z,5.73
2019-03-27T09:27:45.850Z,5.80
2019-03-27T09:30:14.906Z,5.20
2019-03-27T09:32:43.978Z,5.67
2019-03-27T09:35:13.084Z,5.50
2019-03-27T09:37:42.117Z,5.77
2019-03-27T09:40:11.479Z,5.97
2019-03-27T09:42:40.504Z,5.57
2019-03-27T09:45:09.948Z,5.47
2019-03-27T09:47:40.160Z,5.27
2019-03-27T09:50:09.439Z,5.17
2019-03-27T09:52:38.876Z,5.13
2019-03-27T09:55:08.007Z,5.40
2019-03-27T09:57:37.026Z,5.37
2019-03-27T10:00:07.002Z,5.83
2019-03-27T10:02:36.006Z,5.30
2019-03-27T10:05:06.871Z,4.50
2019-03-27T10:07:35.896Z,4.47
2019-03-27T10:10:05.648Z,3.97
2019-03-27T10:12:34.698Z,4.70
2019-03-27T10:15:05.059Z,4.33
2019-03-27T10:17:34.054Z,3.77
2019-03-27T10:20:04.191Z,4.10
2019-03-27T10:22:33.434Z,4.63
2019-03-27T10:25:02.433Z,4.20
2019-03-27T10:27:31.449Z,4.13
2019-03-27T10:30:00.435Z,3.20
2019-03-27T10:32:33.050Z,3.07
2019-03-27T10:35:02.040Z,3.37
2019-03-27T10:37:31.040Z,3.27
2019-03-27T10:40:00.098Z,3.73
2019-03-27T10:42:29.275Z,2.67
2019-03-27T10:44:58.273Z,3.73
2019-03-27T10:47:27.270Z,3.00
2019-03-27T10:49:56.262Z,3.20
2019-03-27T10:52:25.333Z,4.03
2019-03-27T10:54:54.316Z,3.50
2019-03-27T10:57:23.334Z,3.50
2019-03-27T10:59:52.532Z,3.30
2019-03-27T11:02:21.557Z,3.13
2019-03-27T11:04:51.513Z,3.07
2019-03-27T11:07:20.559Z,2.70
2019-03-27T11:09:50.666Z,3.10
2019-03-27T11:12:19.665Z,3.03
2019-03-27T11:14:48.714Z,2.83
2019-03-27T11:17:17.762Z,3.43
2019-03-27T11:19:46.855Z,2.83
2019-03-27T11:22:15.891Z,3.00
2019-03-27T11:24:44.860Z,2.65
2019-03-27T11:27:13.954Z,2.98
2019-03-27T11:29:42.952Z,3.20
2019-03-27T11:32:12.273Z,3.17
2019-03-27T11:34:41.378Z,3.00
2019-03-27T11:37:10.390Z,2.85
2019-03-27T11:39:39.372Z,2.77
2019-03-27T11:42:08.389Z,3.10
2019-03-27T11:44:37.375Z,2.98
2019-03-27T11:47:06.382Z,2.80
2019-03-27T11:49:35.432Z,2.60
2019-03-27T11:52:04.605Z,3.22
2019-03-27T11:54:33.635Z,2.77
2019-03-27T11:57:02.671Z,2.27
2019-03-27T11:59:31.679Z,2.27
2019-03-27T12:02:00.669Z,2.67
2019-03-27T12:04:29.693Z,2.20
2019-03-27T12:06:58.739Z,2.53
2019-03-27T12:09:27.849Z,2.57
2019-03-27T12:11:56.844Z,2.90
2019-03-27T12:14:25.925Z,2.37
2019-03-27T12:16:54.911Z,2.30
2019-03-27T12:19:23.926Z,2.20
2019-03-27T12:21:54.876Z,2.15
2019-03-27T12:24:23.539Z,3.10
2019-03-27T12:26:53.754Z,2.58
2019-03-27T12:29:22.687Z,2.40
2019-03-27T12:31:51.677Z,2.30
2019-03-27T12:34:20.708Z,2.25
2019-03-27T12:36:49.648Z,2.65
2019-03-27T12:39:18.657Z,2.47
2019-03-27T12:41:47.649Z,2.70
2019-03-27T12:44:16.655Z,2.37
2019-03-27T12:46:45.664Z,2.12
2019-03-27T12:49:14.662Z,2.30
2019-03-27T12:51:43.646Z,2.20
2019-03-27T12:54:12.648Z,2.37
2019-03-27T12:56:41.638Z,2.53
2019-03-27T12:59:10.654Z,2.60
2019-03-27T13:01:39.655Z,2.57
2019-03-27T13:04:08.653Z,2.90
2019-03-27T13:06:37.638Z,2.70
2019-03-27T13:09:07.202Z,2.20
2019-03-27T13:11:36.891Z,2.50
2019-03-27T13:14:06.007Z,2.67
2019-03-27T13:16:35.078Z,2.90
2019-03-27T13:19:04.130Z,3.70
2019-03-27T13:21:33.113Z,2.50
2019-03-27T13:24:02.191Z,3.23
2019-03-27T13:26:31.181Z,2.67
2019-03-27T13:29:00.130Z,2.87
2019-03-27T13:31:30.181Z,2.73
2019-03-27T13:33:59.203Z,2.57
2019-03-27T13:36:28.185Z,2.77
2019-03-27T13:38:57.117Z,2.90
2019-03-27T13:41:26.113Z,2.93
2019-03-27T13:43:55.099Z,2.77
2019-03-27T13:46:24.090Z,2.60
2019-03-27T13:48:53.113Z,2.83
2019-03-27T13:51:22.113Z,2.50
2019-03-27T13:53:52.090Z,2.77
2019-03-27T13:56:21.086Z,2.70
2019-03-27T13:58:50.102Z,2.90
2019-03-27T14:01:19.113Z,2.60
2019-03-27T14:03:48.204Z,2.70
2019-03-27T14:06:17.101Z,3.10
2019-03-27T14:08:46.050Z,3.43
2019-03-27T14:11:15.124Z,2.87
2019-03-27T14:13:44.114Z,2.90
2019-03-27T14:16:13.513Z,2.80
2019-03-27T14:18:42.442Z,3.57
2019-03-27T14:21:11.384Z,2.80
2019-03-27T14:23:40.461Z,2.77
2019-03-27T14:26:09.476Z,3.03
2019-03-27T14:28:38.462Z,2.77
2019-03-27T14:31:07.557Z,2.97
2019-03-27T14:33:36.600Z,2.77
2019-03-27T14:36:05.683Z,2.50
2019-03-27T14:38:34.755Z,3.20
2019-03-27T14:41:03.825Z,3.00
2019-03-27T14:43:32.814Z,3.53
2019-03-27T14:46:01.825Z,2.93
2019-03-27T14:48:31.116Z,2.70
2019-03-27T14:51:00.079Z,2.90
2019-03-27T14:53:29.070Z,2.73
2019-03-27T14:55:58.100Z,2.97
2019-03-27T14:58:27.112Z,2.87
2019-03-27T15:00:56.225Z,2.70
2019-03-27T15:03:25.135Z,3.20
2019-03-27T15:05:54.145Z,2.90
2019-03-27T15:08:23.247Z,2.80
2019-03-27T15:10:52.169Z,2.53
2019-03-27T15:13:21.186Z,3.00
2019-03-27T15:15:51.161Z,2.80
2019-03-27T15:18:20.155Z,2.93
2019-03-27T15:20:49.552Z,3.10
2019-03-27T15:23:18.553Z,2.63
2019-03-27T15:25:47.542Z,3.10
2019-03-27T15:28:16.529Z,2.67
2019-03-27T15:30:45.530Z,3.20
2019-03-27T15:33:14.516Z,3.00
2019-03-27T15:35:44.709Z,3.07
2019-03-27T15:38:13.795Z,3.00
2019-03-27T15:40:43.682Z,3.43
2019-03-27T15:43:12.739Z,3.00
2019-03-27T15:45:41.870Z,3.43
2019-03-27T15:48:10.872Z,3.30
2019-03-27T15:50:53.851Z,3.40
2019-03-27T15:53:11.817Z,3.50
2019-03-27T15:55:40.809Z,3.57
2019-03-27T15:58:09.822Z,3.27
2019-03-27T16:00:38.811Z,3.50
2019-03-27T16:03:07.893Z,3.33
2019-03-27T16:05:37.025Z,3.00
2019-03-27T16:08:06.025Z,3.17
2019-03-27T16:10:35.140Z,2.80
2019-03-27T16:13:04.161Z,3.63
2019-03-27T16:15:33.153Z,3.27
2019-03-27T16:18:02.170Z,3.53
2019-03-27T16:20:31.225Z,3.63
2019-03-27T16:23:00.175Z,3.63
2019-03-27T16:25:29.175Z,3.50
2019-03-27T16:27:58.189Z,3.70
2019-03-27T16:30:28.216Z,3.47
2019-03-27T16:33:03.336Z,3.57
2019-03-27T16:35:32.464Z,3.73
2019-03-27T16:38:01.469Z,3.77
2019-03-27T16:40:32.014Z,3.67
2019-03-27T16:43:01.211Z,3.40
2019-03-27T16:45:35.036Z,3.67
2019-03-27T16:48:01.002Z,3.37
2019-03-27T16:50:29.992Z,3.57
2019-03-27T16:53:03.685Z,3.70
2019-03-27T16:55:29.609Z,3.57
2019-03-27T16:57:58.523Z,3.73
2019-03-27T17:00:27.518Z,3.20
2019-03-27T17:02:56.518Z,3.50
2019-03-27T17:05:25.651Z,3.57
2019-03-27T17:07:54.655Z,3.87
2019-03-27T17:10:23.665Z,4.27
2019-03-27T17:12:52.663Z,4.30
2019-03-27T17:15:21.748Z,3.90
2019-03-27T17:17:50.755Z,4.83
2019-03-27T17:20:19.856Z,3.93
2019-03-27T17:22:48.853Z,3.70
2019-03-27T17:25:17.857Z,3.97
2019-03-27T17:27:46.852Z,4.40
2019-03-27T17:30:15.923Z,4.50
2019-03-27T17:32:44.952Z,4.47
2019-03-27T17:35:13.976Z,4.93
2019-03-27T17:37:43.031Z,4.43
2019-03-27T17:40:12.126Z,4.50
2019-03-27T17:42:41.162Z,4.80
2019-03-27T17:45:10.279Z,4.33
2019-03-27T17:47:39.277Z,4.00
2019-03-27T17:50:08.459Z,4.80
2019-03-27T17:52:38.372Z,3.93
2019-03-27T17:55:07.503Z,4.10
2019-03-27T17:57:36.502Z,4.10
2019-03-27T18:00:07.128Z,4.03
2019-03-27T18:02:36.619Z,3.77
2019-03-27T18:05:06.581Z,3.90
2019-03-27T18:07:35.566Z,4.43
2019-03-27T18:10:05.472Z,4.17
2019-03-27T18:12:34.378Z,3.90
2019-03-27T18:15:04.356Z,4.60
2019-03-27T18:17:33.345Z,4.50
2019-03-27T18:20:02.335Z,4.27
2019-03-27T18:22:31.598Z,4.13
2019-03-27T18:25:00.601Z,4.27
2019-03-27T18:27:29.594Z,4.17
2019-03-27T18:29:58.583Z,5.20
2019-03-27T18:32:27.594Z,4.30
2019-03-27T18:34:56.584Z,5.20
2019-03-27T18:37:25.632Z,8.20
2019-03-27T18:39:54.627Z,6.93
2019-03-27T18:42:23.651Z,5.70
2019-03-27T18:44:52.695Z,4.70
2019-03-27T18:47:21.707Z,4.30
2019-03-27T18:49:50.894Z,4.20
2019-03-27T18:52:19.997Z,4.40
2019-03-27T18:54:48.973Z,4.70
2019-03-27T18:57:18.005Z,4.87
2019-03-27T18:59:46.993Z,4.70
2019-03-27T19:02:16.014Z,4.53
2019-03-27T19:04:45.085Z,4.67
2019-03-27T19:07:14.029Z,4.70
2019-03-27T19:09:43.002Z,5.00
2019-03-27T19:12:12.029Z,4.40
2019-03-27T19:14:41.007Z,3.90
2019-03-27T19:17:10.095Z,4.27
2019-03-27T19:19:39.201Z,4.73
2019-03-27T19:22:08.162Z,4.73
2019-03-27T19:24:37.222Z,4.87
2019-03-27T19:27:06.598Z,4.30
2019-03-27T19:29:35.594Z,3.80
2019-03-27T19:32:04.609Z,4.33
2019-03-27T19:34:33.599Z,4.17
2019-03-27T19:37:02.603Z,4.27
2019-03-27T19:39:31.613Z,4.57
2019-03-27T19:42:00.964Z,4.60
2019-03-27T19:44:29.993Z,4.40
2019-03-27T19:46:59.054Z,4.30
2019-03-27T19:49:28.135Z,4.33
2019-03-27T19:51:57.117Z,4.33
2019-03-27T19:54:27.311Z,4.10
2019-03-27T19:56:56.542Z,4.83
2019-03-27T19:59:25.551Z,4.17
2019-03-27T20:01:54.551Z,5.10
2019-03-27T20:04:23.631Z,4.57
2019-03-27T20:06:52.631Z,4.70
2019-03-27T20:09:21.644Z,4.63
2019-03-27T20:11:50.764Z,4.60
2019-03-27T20:14:20.252Z,4.50
2019-03-27T20:16:49.269Z,4.03
2019-03-27T20:19:18.323Z,4.47
2019-03-27T20:21:47.333Z,4.73
2019-03-27T20:24:16.360Z,4.07
2019-03-27T20:26:45.427Z,4.80
2019-03-27T20:29:14.514Z,4.50
2019-03-27T20:31:43.562Z,4.00
2019-03-27T20:34:12.576Z,4.17
2019-03-27T20:36:41.626Z,4.20
2019-03-27T20:39:10.625Z,4.40
2019-03-27T20:41:40.061Z,5.03
2019-03-27T20:44:09.059Z,4.57
2019-03-27T20:46:38.048Z,4.90
2019-03-27T20:49:07.055Z,4.33
2019-03-27T21:01:14.851Z,5.20
2019-03-27T21:03:43.992Z,5.90
2019-03-27T21:06:12.934Z,5.37
2019-03-27T21:14:52.609Z,6.00
2019-03-27T21:17:21.706Z,5.77
2019-03-27T21:19:50.866Z,6.17
2019-03-27T21:22:19.888Z,6.50
2019-03-27T21:24:48.907Z,5.27
2019-03-27T21:27:17.972Z,6.27
2019-03-27T21:30:12.028Z,4.97
2019-03-27T21:32:41.056Z,6.57
2019-03-27T21:35:10.358Z,5.57
2019-03-27T21:37:39.282Z,5.80
2019-03-27T21:40:08.853Z,5.47
2019-03-27T21:42:37.854Z,6.30
2019-03-27T21:45:08.551Z,5.87
2019-03-27T21:47:56.896Z,6.27
2019-03-27T21:50:25.981Z,7.03
2019-03-27T21:53:00.625Z,7.10
2019-03-27T21:55:25.550Z,7.10
2019-03-27T21:57:54.563Z,8.40
2019-03-27T22:00:25.129Z,7.93
2019-03-27T22:02:54.185Z,7.83
2019-03-27T22:05:23.146Z,8.00
2019-03-27T22:07:52.177Z,6.97
2019-03-27T22:10:21.196Z,6.77
2019-03-27T22:12:50.206Z,6.07
2019-03-27T22:15:19.228Z,7.07
2019-03-27T22:17:48.243Z,6.60
2019-03-27T22:20:17.275Z,6.57
2019-03-27T22:22:46.285Z,7.00
2019-03-27T22:25:15.303Z,7.00
2019-03-27T22:27:44.300Z,6.53
2019-03-27T22:30:13.421Z,6.53
2019-03-27T22:32:42.437Z,6.63
2019-03-27T22:35:11.461Z,6.43
2019-03-27T22:37:40.389Z,6.70
2019-03-27T22:40:09.471Z,6.27
2019-03-27T22:42:38.496Z,6.90
2019-03-27T22:45:07.489Z,6.87
2019-03-27T22:47:36.529Z,6.70
2019-03-27T22:50:08.133Z,6.30
2019-03-27T22:52:37.146Z,5.53
2019-03-27T22:55:07.001Z,6.17
2019-03-27T22:57:36.006Z,6.77
2019-03-27T23:00:06.824Z,5.20
2019-03-27T23:02:37.548Z,5.83
2019-03-27T23:05:06.883Z,5.67
2019-03-27T23:07:35.876Z,6.43
2019-03-27T23:10:06.131Z,6.73
2019-03-27T23:12:35.222Z,6.27
2019-03-27T23:15:05.754Z,6.13
2019-03-27T23:17:34.789Z,6.03
2019-03-27T23:20:05.362Z,5.67
2019-03-27T23:22:34.383Z,6.83
2019-03-27T23:25:03.759Z,6.63
2019-03-27T23:27:32.882Z,6.43
2019-03-27T23:30:01.932Z,7.77
2019-03-27T23:32:31.044Z,6.40
2019-03-27T23:35:00.026Z,5.93
2019-03-27T23:37:29.113Z,6.00
2019-03-27T23:39:58.152Z,7.03
2019-03-27T23:42:27.179Z,8.50
2019-03-27T23:44:56.190Z,9.23
2019-03-27T23:47:25.226Z,9.50
2019-03-27T23:49:54.311Z,8.77
2019-03-27T23:52:23.293Z,9.10
2019-03-27T23:54:52.226Z,9.90
2019-03-27T23:57:21.150Z,9.20
2019-03-27T23:59:50.163Z,9.33
